sensor_id;sensor_type;location;lat;lon;timestamp;temperature;humidity
11944;DHT22;6031;50.220;10.122;2023-07-29T00:02:00;18.90;99.90
11944;DHT22;6031;50.220;10.122;2023-07-29T00:04:25;18.90;99.90
11944;DHT22;6031;50.220;10.122;2023-07-29T00:06:51;18.80;99.90
11944;DHT22;6031;50.220;10.122;2023-07-29T00:09:16;18.90;99.90
11944;DHT22;6031;50.220;10.122;2023-07-29T00:11:42;18.80;99.90
11944;DHT22;6031;50.220;10.122;2023-07-29T00:14:07;18.80;99.90
11944;DHT22;6031;50.220;10.122;2023-07-29T00:16:33;18.80;99.90
11944;DHT22;6031;50.220;10.122;2023-07-29T00:18:58;18.70;99.90
11944;DHT22;6031;50.220;10.122;2023-07-29T00:21:24;18.80;99.90
11944;DHT22;6031;50.220;10.122;2023-07-29T00:23:49;18.70;99.90
11944;DHT22;6031;50.220;10.122;2023-07-29T00:26:15;18.70;99.90
11944;DHT22;6031;50.220;10.122;2023-07-29T00:28:41;18.60;99.90
11944;DHT22;6031;50.220;10.122;2023-07-29T00:31:06;18.50;99.90
11944;DHT22;6031;50.220;10.122;2023-07-29T00:33:32;18.50;99.90
11944;DHT22;6031;50.220;10.122;2023-07-29T00:35:57;18.40;99.90
11944;DHT22;6031;50.220;10.122;2023-07-29T00:38:27;18.30;99.90
11944;DHT22;6031;50.220;10.122;2023-07-29T00:40:52;18.20;99.90
11944;DHT22;6031;50.220;10.122;2023-07-29T00:43:18;18.20;99.90
11944;DHT22;6031;50.220;10.122;2023-07-29T00:45:44;18.20;99.90
11944;DHT22;6031;50.220;10.122;2023-07-29T00:48:09;18.20;99.90
11944;DHT22;6031;50.220;10.122;2023-07-29T00:50:35;18.30;99.90
11944;DHT22;6031;50.220;10.122;2023-07-29T00:53:00;18.40;99.90
11944;DHT22;6031;50.220;10.122;2023-07-29T00:55:26;18.40;99.90
11944;DHT22;6031;50.220;10.122;2023-07-29T00:57:54;18.50;99.90
11944;DHT22;6031;50.220;10.122;2023-07-29T01:00:20;18.50;99.90
11944;DHT22;6031;50.220;10.122;2023-07-29T01:02:46;18.50;99.90
11944;DHT22;6031;50.220;10.122;2023-07-29T01:05:13;18.50;99.90
11944;DHT22;6031;50.220;10.122;2023-07-29T01:08:02;18.50;99.90
11944;DHT22;6031;50.220;10.122;2023-07-29T01:13:16;18.50;99.90
11944;DHT22;6031;50.220;10.122;2023-07-29T01:15:53;18.50;99.90
11944;DHT22;6031;50.220;10.122;2023-07-29T01:18:26;18.60;99.90
11944;DHT22;6031;50.220;10.122;2023-07-29T01:20:58;18.50;99.90
11944;DHT22;6031;50.220;10.122;2023-07-29T01:23:34;18.50;99.90
11944;DHT22;6031;50.220;10.122;2023-07-29T01:26:00;18.50;99.90
11944;DHT22;6031;50.220;10.122;2023-07-29T01:28:27;18.50;99.90
11944;DHT22;6031;50.220;10.122;2023-07-29T01:31:10;18.40;99.90
11944;DHT22;6031;50.220;10.122;2023-07-29T01:33:42;18.40;99.90
11944;DHT22;6031;50.220;10.122;2023-07-29T01:36:18;18.40;99.90
11944;DHT22;6031;50.220;10.122;2023-07-29T01:38:44;18.40;99.90
11944;DHT22;6031;50.220;10.122;2023-07-29T01:41:10;18.40;99.90
11944;DHT22;6031;50.220;10.122;2023-07-29T01:43:37;18.40;99.90
11944;DHT22;6031;50.220;10.122;2023-07-29T01:46:09;18.40;99.90
11944;DHT22;6031;50.220;10.122;2023-07-29T01:48:35;18.40;99.90
11944;DHT22;6031;50.220;10.122;2023-07-29T01:51:01;18.40;99.90
11944;DHT22;6031;50.220;10.122;2023-07-29T01:53:27;18.30;99.90
11944;DHT22;6031;50.220;10.122;2023-07-29T01:55:52;18.30;99.90
11944;DHT22;6031;50.220;10.122;2023-07-29T01:58:18;18.20;99.90
11944;DHT22;6031;50.220;10.122;2023-07-29T02:00:43;18.20;99.90
11944;DHT22;6031;50.220;10.122;2023-07-29T02:03:09;18.20;99.90
11944;DHT22;6031;50.220;10.122;2023-07-29T02:05:34;18.10;99.90
11944;DHT22;6031;50.220;10.122;2023-07-29T02:08:00;18.00;99.90
11944;DHT22;6031;50.220;10.122;2023-07-29T02:10:25;17.90;99.90
11944;DHT22;6031;50.220;10.122;2023-07-29T02:12:51;17.70;99.90
11944;DHT22;6031;50.220;10.122;2023-07-29T02:15:17;17.60;99.90
11944;DHT22;6031;50.220;10.122;2023-07-29T02:17:42;17.60;99.90
11944;DHT22;6031;50.220;10.122;2023-07-29T02:20:08;17.50;99.90
11944;DHT22;6031;50.220;10.122;2023-07-29T02:22:35;17.40;99.90
11944;DHT22;6031;50.220;10.122;2023-07-29T02:25:01;17.40;99.90
11944;DHT22;6031;50.220;10.122;2023-07-29T02:27:27;17.40;99.90
11944;DHT22;6031;50.220;10.122;2023-07-29T02:29:53;17.40;99.90
11944;DHT22;6031;50.220;10.122;2023-07-29T02:32:20;17.40;99.90
11944;DHT22;6031;50.220;10.122;2023-07-29T02:34:45;17.40;99.90
11944;DHT22;6031;50.220;10.122;2023-07-29T02:37:11;17.30;99.90
11944;DHT22;6031;50.220;10.122;2023-07-29T02:39:37;17.30;99.90
11944;DHT22;6031;50.220;10.122;2023-07-29T02:42:02;17.30;99.90
11944;DHT22;6031;50.220;10.122;2023-07-29T02:44:28;17.20;99.90
11944;DHT22;6031;50.220;10.122;2023-07-29T02:46:54;17.20;99.90
11944;DHT22;6031;50.220;10.122;2023-07-29T02:49:21;17.20;99.90
11944;DHT22;6031;50.220;10.122;2023-07-29T02:51:47;17.10;99.90
11944;DHT22;6031;50.220;10.122;2023-07-29T02:54:12;17.00;99.90
11944;DHT22;6031;50.220;10.122;2023-07-29T02:56:38;17.10;99.90
11944;DHT22;6031;50.220;10.122;2023-07-29T02:59:03;17.10;99.90
11944;DHT22;6031;50.220;10.122;2023-07-29T03:01:30;17.20;99.90
11944;DHT22;6031;50.220;10.122;2023-07-29T03:03:56;17.20;99.90
11944;DHT22;6031;50.220;10.122;2023-07-29T03:06:21;17.30;99.90
11944;DHT22;6031;50.220;10.122;2023-07-29T03:08:47;17.40;99.90
11944;DHT22;6031;50.220;10.122;2023-07-29T03:11:14;17.40;99.90
11944;DHT22;6031;50.220;10.122;2023-07-29T03:13:40;17.40;99.90
11944;DHT22;6031;50.220;10.122;2023-07-29T03:16:07;17.50;99.90
11944;DHT22;6031;50.220;10.122;2023-07-29T03:18:33;17.50;99.90
11944;DHT22;6031;50.220;10.122;2023-07-29T03:20:59;17.50;99.90
11944;DHT22;6031;50.220;10.122;2023-07-29T03:23:24;17.50;99.90
11944;DHT22;6031;50.220;10.122;2023-07-29T03:25:50;17.60;99.90
11944;DHT22;6031;50.220;10.122;2023-07-29T03:28:28;17.50;99.90
11944;DHT22;6031;50.220;10.122;2023-07-29T03:30:55;17.50;99.90
11944;DHT22;6031;50.220;10.122;2023-07-29T03:33:20;17.50;99.90
11944;DHT22;6031;50.220;10.122;2023-07-29T03:35:46;17.50;99.90
11944;DHT22;6031;50.220;10.122;2023-07-29T03:38:12;17.50;99.90
11944;DHT22;6031;50.220;10.122;2023-07-29T03:40:38;17.60;99.90
11944;DHT22;6031;50.220;10.122;2023-07-29T03:43:04;17.50;99.90
11944;DHT22;6031;50.220;10.122;2023-07-29T03:45:30;17.60;99.90
11944;DHT22;6031;50.220;10.122;2023-07-29T03:47:55;17.60;99.90
11944;DHT22;6031;50.220;10.122;2023-07-29T03:50:21;17.70;99.90
11944;DHT22;6031;50.220;10.122;2023-07-29T03:52:46;17.70;99.90
11944;DHT22;6031;50.220;10.122;2023-07-29T03:55:12;17.70;99.90
11944;DHT22;6031;50.220;10.122;2023-07-29T03:57:37;17.80;99.90
11944;DHT22;6031;50.220;10.122;2023-07-29T04:00:03;17.80;99.90
11944;DHT22;6031;50.220;10.122;2023-07-29T04:02:29;17.80;99.90
11944;DHT22;6031;50.220;10.122;2023-07-29T04:04:55;17.80;99.90
11944;DHT22;6031;50.220;10.122;2023-07-29T04:07:20;17.80;99.90
11944;DHT22;6031;50.220;10.122;2023-07-29T04:09:46;17.80;99.90
11944;DHT22;6031;50.220;10.122;2023-07-29T04:12:11;17.80;99.90
11944;DHT22;6031;50.220;10.122;2023-07-29T04:14:37;17.90;99.90
11944;DHT22;6031;50.220;10.122;2023-07-29T04:17:03;17.90;99.90
11944;DHT22;6031;50.220;10.122;2023-07-29T04:19:28;17.90;99.90
11944;DHT22;6031;50.220;10.122;2023-07-29T04:21:54;17.90;99.90
11944;DHT22;6031;50.220;10.122;2023-07-29T04:24:19;18.00;99.90
11944;DHT22;6031;50.220;10.122;2023-07-29T04:26:45;18.00;99.90
11944;DHT22;6031;50.220;10.122;2023-07-29T04:29:11;18.00;99.90
11944;DHT22;6031;50.220;10.122;2023-07-29T04:31:37;18.00;99.90
11944;DHT22;6031;50.220;10.122;2023-07-29T04:34:04;18.00;99.90
11944;DHT22;6031;50.220;10.122;2023-07-29T04:36:30;18.10;99.90
11944;DHT22;6031;50.220;10.122;2023-07-29T04:38:55;18.20;99.90
11944;DHT22;6031;50.220;10.122;2023-07-29T04:41:20;18.30;99.90
11944;DHT22;6031;50.220;10.122;2023-07-29T04:43:46;18.30;99.90
11944;DHT22;6031;50.220;10.122;2023-07-29T04:46:12;18.30;99.90
11944;DHT22;6031;50.220;10.122;2023-07-29T04:48:37;18.30;99.90
11944;DHT22;6031;50.220;10.122;2023-07-29T04:51:03;18.30;99.90
11944;DHT22;6031;50.220;10.122;2023-07-29T04:53:29;18.20;99.90
11944;DHT22;6031;50.220;10.122;2023-07-29T04:55:54;18.10;99.90
11944;DHT22;6031;50.220;10.122;2023-07-29T04:58:20;18.00;99.90
11944;DHT22;6031;50.220;10.122;2023-07-29T05:00:47;17.80;99.90
11944;DHT22;6031;50.220;10.122;2023-07-29T05:03:12;17.70;99.90
11944;DHT22;6031;50.220;10.122;2023-07-29T05:05:38;17.70;99.90
11944;DHT22;6031;50.220;10.122;2023-07-29T05:08:03;17.60;99.90
11944;DHT22;6031;50.220;10.122;2023-07-29T05:10:29;17.60;99.90
11944;DHT22;6031;50.220;10.122;2023-07-29T05:12:54;17.60;99.90
11944;DHT22;6031;50.220;10.122;2023-07-29T05:15:20;17.60;99.90
11944;DHT22;6031;50.220;10.122;2023-07-29T05:17:45;17.70;99.90
11944;DHT22;6031;50.220;10.122;2023-07-29T05:20:11;17.70;99.90
11944;DHT22;6031;50.220;10.122;2023-07-29T05:22:37;17.80;99.90
11944;DHT22;6031;50.220;10.122;2023-07-29T05:25:03;17.80;99.90
11944;DHT22;6031;50.220;10.122;2023-07-29T05:27:28;17.80;99.90
11944;DHT22;6031;50.220;10.122;2023-07-29T05:29:54;17.80;99.90
11944;DHT22;6031;50.220;10.122;2023-07-29T05:32:19;17.80;99.90
11944;DHT22;6031;50.220;10.122;2023-07-29T05:34:45;17.80;99.90
11944;DHT22;6031;50.220;10.122;2023-07-29T05:37:10;17.90;99.90
11944;DHT22;6031;50.220;10.122;2023-07-29T05:39:36;18.00;99.90
11944;DHT22;6031;50.220;10.122;2023-07-29T05:42:02;18.00;99.90
11944;DHT22;6031;50.220;10.122;2023-07-29T05:44:28;18.00;99.90
11944;DHT22;6031;50.220;10.122;2023-07-29T05:46:55;18.00;99.90
11944;DHT22;6031;50.220;10.122;2023-07-29T05:49:21;18.00;99.90
11944;DHT22;6031;50.220;10.122;2023-07-29T05:51:46;18.00;99.90
11944;DHT22;6031;50.220;10.122;2023-07-29T05:54:12;18.10;99.90
11944;DHT22;6031;50.220;10.122;2023-07-29T05:56:37;18.20;99.90
11944;DHT22;6031;50.220;10.122;2023-07-29T05:59:03;18.30;99.90
11944;DHT22;6031;50.220;10.122;2023-07-29T06:01:29;18.30;99.90
11944;DHT22;6031;50.220;10.122;2023-07-29T06:03:54;18.40;99.90
11944;DHT22;6031;50.220;10.122;2023-07-29T06:06:19;18.50;99.90
11944;DHT22;6031;50.220;10.122;2023-07-29T06:08:45;18.50;99.90
11944;DHT22;6031;50.220;10.122;2023-07-29T06:11:10;18.50;99.90
11944;DHT22;6031;50.220;10.122;2023-07-29T06:13:36;18.50;99.90
11944;DHT22;6031;50.220;10.122;2023-07-29T06:16:02;18.60;99.90
11944;DHT22;6031;50.220;10.122;2023-07-29T06:18:27;18.60;99.90
11944;DHT22;6031;50.220;10.122;2023-07-29T06:20:53;18.60;99.90
11944;DHT22;6031;50.220;10.122;2023-07-29T06:23:18;18.50;99.90
11944;DHT22;6031;50.220;10.122;2023-07-29T06:25:44;18.50;99.90
11944;DHT22;6031;50.220;10.122;2023-07-29T06:28:09;18.60;99.90
11944;DHT22;6031;50.220;10.122;2023-07-29T06:30:35;18.60;99.90
11944;DHT22;6031;50.220;10.122;2023-07-29T06:33:01;18.70;99.90
11944;DHT22;6031;50.220;10.122;2023-07-29T06:35:28;18.80;99.90
11944;DHT22;6031;50.220;10.122;2023-07-29T06:37:53;18.90;99.90
11944;DHT22;6031;50.220;10.122;2023-07-29T06:40:19;18.90;99.90
11944;DHT22;6031;50.220;10.122;2023-07-29T06:42:45;19.10;99.90
11944;DHT22;6031;50.220;10.122;2023-07-29T06:45:11;19.20;99.90
11944;DHT22;6031;50.220;10.122;2023-07-29T06:47:37;19.40;99.90
11944;DHT22;6031;50.220;10.122;2023-07-29T06:50:03;19.60;99.90
11944;DHT22;6031;50.220;10.122;2023-07-29T06:52:28;19.60;99.90
11944;DHT22;6031;50.220;10.122;2023-07-29T06:54:54;19.70;99.90
11944;DHT22;6031;50.220;10.122;2023-07-29T06:57:19;19.90;99.90
11944;DHT22;6031;50.220;10.122;2023-07-29T06:59:45;20.00;26.10
11944;DHT22;6031;50.220;10.122;2023-07-29T07:02:10;20.10;50.40
11944;DHT22;6031;50.220;10.122;2023-07-29T07:04:36;20.30;1.00
11944;DHT22;6031;50.220;10.122;2023-07-29T07:07:01;20.30;1.00
11944;DHT22;6031;50.220;10.122;2023-07-29T07:09:27;20.30;1.00
11944;DHT22;6031;50.220;10.122;2023-07-29T07:11:52;20.30;1.00
11944;DHT22;6031;50.220;10.122;2023-07-29T07:14:18;20.00;99.90
11944;DHT22;6031;50.220;10.122;2023-07-29T07:16:43;19.80;1.00
11944;DHT22;6031;50.220;10.122;2023-07-29T07:19:09;19.70;1.00
11944;DHT22;6031;50.220;10.122;2023-07-29T07:21:35;19.70;1.00
11944;DHT22;6031;50.220;10.122;2023-07-29T07:24:00;19.60;1.00
11944;DHT22;6031;50.220;10.122;2023-07-29T07:26:26;19.60;1.00
11944;DHT22;6031;50.220;10.122;2023-07-29T07:28:51;19.50;1.00
11944;DHT22;6031;50.220;10.122;2023-07-29T07:31:17;19.60;19.60
11944;DHT22;6031;50.220;10.122;2023-07-29T07:33:42;19.40;1.00
11944;DHT22;6031;50.220;10.122;2023-07-29T07:36:08;19.40;68.60
11944;DHT22;6031;50.220;10.122;2023-07-29T07:38:34;19.40;27.90
11944;DHT22;6031;50.220;10.122;2023-07-29T07:40:59;19.30;47.30
11944;DHT22;6031;50.220;10.122;2023-07-29T07:43:25;19.40;99.90
11944;DHT22;6031;50.220;10.122;2023-07-29T07:45:51;19.40;99.90
11944;DHT22;6031;50.220;10.122;2023-07-29T07:48:17;19.40;99.90
11944;DHT22;6031;50.220;10.122;2023-07-29T07:50:43;19.50;99.90
11944;DHT22;6031;50.220;10.122;2023-07-29T07:53:08;19.50;99.90
11944;DHT22;6031;50.220;10.122;2023-07-29T07:55:34;19.50;29.90
11944;DHT22;6031;50.220;10.122;2023-07-29T07:57:59;19.60;99.90
11944;DHT22;6031;50.220;10.122;2023-07-29T08:00:25;19.80;99.90
11944;DHT22;6031;50.220;10.122;2023-07-29T08:02:50;20.00;99.90
11944;DHT22;6031;50.220;10.122;2023-07-29T08:05:16;20.00;1.00
11944;DHT22;6031;50.220;10.122;2023-07-29T08:07:42;20.00;1.00
11944;DHT22;6031;50.220;10.122;2023-07-29T08:10:07;20.00;1.00
11944;DHT22;6031;50.220;10.122;2023-07-29T08:12:33;20.10;17.10
11944;DHT22;6031;50.220;10.122;2023-07-29T08:14:59;20.30;1.00
11944;DHT22;6031;50.220;10.122;2023-07-29T08:17:24;20.40;99.90
11944;DHT22;6031;50.220;10.122;2023-07-29T08:19:50;20.40;99.90
11944;DHT22;6031;50.220;10.122;2023-07-29T08:22:15;20.50;99.90
11944;DHT22;6031;50.220;10.122;2023-07-29T08:24:42;20.50;1.00
11944;DHT22;6031;50.220;10.122;2023-07-29T08:27:08;20.40;1.00
11944;DHT22;6031;50.220;10.122;2023-07-29T08:29:34;20.10;1.00
11944;DHT22;6031;50.220;10.122;2023-07-29T08:31:59;19.80;1.00
11944;DHT22;6031;50.220;10.122;2023-07-29T08:34:25;19.50;99.90
11944;DHT22;6031;50.220;10.122;2023-07-29T08:36:50;19.40;99.90
11944;DHT22;6031;50.220;10.122;2023-07-29T08:39:16;19.10;99.90
11944;DHT22;6031;50.220;10.122;2023-07-29T08:44:31;18.80;99.90
11944;DHT22;6031;50.220;10.122;2023-07-29T08:46:59;18.70;99.90
11944;DHT22;6031;50.220;10.122;2023-07-29T08:49:26;18.70;99.90
11944;DHT22;6031;50.220;10.122;2023-07-29T08:51:53;18.60;99.90
11944;DHT22;6031;50.220;10.122;2023-07-29T08:54:19;18.50;99.90
11944;DHT22;6031;50.220;10.122;2023-07-29T08:56:45;18.50;99.90
11944;DHT22;6031;50.220;10.122;2023-07-29T08:59:11;18.50;99.90
11944;DHT22;6031;50.220;10.122;2023-07-29T09:01:41;18.40;99.90
11944;DHT22;6031;50.220;10.122;2023-07-29T09:04:07;18.40;99.90
11944;DHT22;6031;50.220;10.122;2023-07-29T09:06:33;18.30;99.90
11944;DHT22;6031;50.220;10.122;2023-07-29T09:08:59;18.40;99.90
11944;DHT22;6031;50.220;10.122;2023-07-29T09:11:25;18.40;99.90
11944;DHT22;6031;50.220;10.122;2023-07-29T09:13:51;18.50;99.90
11944;DHT22;6031;50.220;10.122;2023-07-29T09:16:18;18.60;99.90
11944;DHT22;6031;50.220;10.122;2023-07-29T09:18:47;18.80;99.90
11944;DHT22;6031;50.220;10.122;2023-07-29T09:21:15;18.90;99.90
11944;DHT22;6031;50.220;10.122;2023-07-29T09:23:42;19.10;99.90
11944;DHT22;6031;50.220;10.122;2023-07-29T09:26:08;19.20;99.90
11944;DHT22;6031;50.220;10.122;2023-07-29T09:28:35;19.30;99.90
11944;DHT22;6031;50.220;10.122;2023-07-29T09:31:01;19.30;99.90
11944;DHT22;6031;50.220;10.122;2023-07-29T09:33:28;19.20;99.90
11944;DHT22;6031;50.220;10.122;2023-07-29T09:35:53;19.20;99.90
11944;DHT22;6031;50.220;10.122;2023-07-29T09:38:26;19.20;99.90
11944;DHT22;6031;50.220;10.122;2023-07-29T09:40:57;19.30;99.90
11944;DHT22;6031;50.220;10.122;2023-07-29T09:43:30;19.40;99.90
11944;DHT22;6031;50.220;10.122;2023-07-29T09:46:03;19.30;99.90
11944;DHT22;6031;50.220;10.122;2023-07-29T09:48:35;19.30;99.90
11944;DHT22;6031;50.220;10.122;2023-07-29T09:51:14;19.50;99.90
11944;DHT22;6031;50.220;10.122;2023-07-29T09:53:47;19.80;99.90
11944;DHT22;6031;50.220;10.122;2023-07-29T09:56:14;19.90;99.90
11944;DHT22;6031;50.220;10.122;2023-07-29T09:58:40;20.10;99.90
11944;DHT22;6031;50.220;10.122;2023-07-29T10:01:08;20.40;99.90
11944;DHT22;6031;50.220;10.122;2023-07-29T10:03:34;20.90;99.90
11944;DHT22;6031;50.220;10.122;2023-07-29T10:06:05;21.10;99.90
11944;DHT22;6031;50.220;10.122;2023-07-29T10:08:31;21.70;99.90
11944;DHT22;6031;50.220;10.122;2023-07-29T10:11:10;22.70;99.90
11944;DHT22;6031;50.220;10.122;2023-07-29T10:13:37;23.30;99.90
11944;DHT22;6031;50.220;10.122;2023-07-29T10:16:03;24.00;99.90
11944;DHT22;6031;50.220;10.122;2023-07-29T10:18:31;24.10;1.00
11944;DHT22;6031;50.220;10.122;2023-07-29T10:20:57;25.10;99.90
11944;DHT22;6031;50.220;10.122;2023-07-29T10:23:25;24.90;1.00
11944;DHT22;6031;50.220;10.122;2023-07-29T10:26:05;24.20;72.80
11944;DHT22;6031;50.220;10.122;2023-07-29T10:28:31;23.60;1.00
11944;DHT22;6031;50.220;10.122;2023-07-29T10:30:58;23.10;1.00
11944;DHT22;6031;50.220;10.122;2023-07-29T10:33:24;23.50;1.00
11944;DHT22;6031;50.220;10.122;2023-07-29T10:35:51;24.80;99.90
11944;DHT22;6031;50.220;10.122;2023-07-29T10:38:18;26.90;1.00
11944;DHT22;6031;50.220;10.122;2023-07-29T10:40:51;27.80;99.90
11944;DHT22;6031;50.220;10.122;2023-07-29T10:45:56;31.40;68.00
11944;DHT22;6031;50.220;10.122;2023-07-29T10:53:47;29.30;1.00
11944;DHT22;6031;50.220;10.122;2023-07-29T10:56:13;28.10;99.90
11944;DHT22;6031;50.220;10.122;2023-07-29T10:58:49;27.70;99.90
11944;DHT22;6031;50.220;10.122;2023-07-29T11:01:26;27.20;99.90
11944;DHT22;6031;50.220;10.122;2023-07-29T11:04:28;27.00;1.00
11944;DHT22;6031;50.220;10.122;2023-07-29T11:12:39;26.80;1.00
11944;DHT22;6031;50.220;10.122;2023-07-29T11:15:25;26.90;99.90
11944;DHT22;6031;50.220;10.122;2023-07-29T11:17:52;29.00;99.90
11944;DHT22;6031;50.220;10.122;2023-07-29T11:20:23;29.90;1.00
11944;DHT22;6031;50.220;10.122;2023-07-29T11:22:49;29.30;1.00
11944;DHT22;6031;50.220;10.122;2023-07-29T11:25:16;29.90;1.00
11944;DHT22;6031;50.220;10.122;2023-07-29T11:27:43;31.70;1.00
11944;DHT22;6031;50.220;10.122;2023-07-29T11:30:10;32.30;1.00
11944;DHT22;6031;50.220;10.122;2023-07-29T11:32:37;33.40;1.00
11944;DHT22;6031;50.220;10.122;2023-07-29T11:35:05;33.90;1.00
11944;DHT22;6031;50.220;10.122;2023-07-29T11:37:33;32.50;1.00
11944;DHT22;6031;50.220;10.122;2023-07-29T11:39:59;30.30;1.00
11944;DHT22;6031;50.220;10.122;2023-07-29T11:42:26;29.20;1.00
11944;DHT22;6031;50.220;10.122;2023-07-29T11:44:51;28.90;1.00
11944;DHT22;6031;50.220;10.122;2023-07-29T11:47:17;29.80;1.00
11944;DHT22;6031;50.220;10.122;2023-07-29T11:49:42;31.00;1.00
11944;DHT22;6031;50.220;10.122;2023-07-29T11:52:09;30.80;1.00
11944;DHT22;6031;50.220;10.122;2023-07-29T11:54:38;31.00;1.00
11944;DHT22;6031;50.220;10.122;2023-07-29T11:57:07;30.10;1.00
11944;DHT22;6031;50.220;10.122;2023-07-29T11:59:35;29.30;1.00
11944;DHT22;6031;50.220;10.122;2023-07-29T12:02:01;30.30;1.00
11944;DHT22;6031;50.220;10.122;2023-07-29T12:04:30;30.50;1.00
11944;DHT22;6031;50.220;10.122;2023-07-29T12:06:56;31.30;1.00
11944;DHT22;6031;50.220;10.122;2023-07-29T12:09:23;30.60;1.00
11944;DHT22;6031;50.220;10.122;2023-07-29T12:11:48;31.00;1.00
11944;DHT22;6031;50.220;10.122;2023-07-29T12:14:16;31.40;1.00
11944;DHT22;6031;50.220;10.122;2023-07-29T12:16:48;30.50;1.00
11944;DHT22;6031;50.220;10.122;2023-07-29T12:19:15;29.30;1.00
11944;DHT22;6031;50.220;10.122;2023-07-29T12:21:44;30.10;1.00
11944;DHT22;6031;50.220;10.122;2023-07-29T12:24:11;31.30;1.00
11944;DHT22;6031;50.220;10.122;2023-07-29T12:26:37;31.50;1.00
11944;DHT22;6031;50.220;10.122;2023-07-29T12:29:17;32.10;1.00
11944;DHT22;6031;50.220;10.122;2023-07-29T12:31:45;31.60;1.00
11944;DHT22;6031;50.220;10.122;2023-07-29T12:34:20;30.50;1.00
11944;DHT22;6031;50.220;10.122;2023-07-29T12:36:50;31.10;1.00
11944;DHT22;6031;50.220;10.122;2023-07-29T12:41:49;31.40;1.00
11944;DHT22;6031;50.220;10.122;2023-07-29T12:44:15;31.90;1.00
11944;DHT22;6031;50.220;10.122;2023-07-29T12:46:41;32.30;1.00
11944;DHT22;6031;50.220;10.122;2023-07-29T12:49:07;31.90;1.00
11944;DHT22;6031;50.220;10.122;2023-07-29T12:51:32;32.00;1.00
11944;DHT22;6031;50.220;10.122;2023-07-29T12:53:58;31.90;1.00
11944;DHT22;6031;50.220;10.122;2023-07-29T12:56:24;31.10;1.00
11944;DHT22;6031;50.220;10.122;2023-07-29T12:58:49;29.90;1.00
11944;DHT22;6031;50.220;10.122;2023-07-29T13:01:15;29.00;1.00
11944;DHT22;6031;50.220;10.122;2023-07-29T13:03:48;28.70;1.00
11944;DHT22;6031;50.220;10.122;2023-07-29T13:06:14;28.90;1.00
11944;DHT22;6031;50.220;10.122;2023-07-29T13:08:40;29.10;1.00
11944;DHT22;6031;50.220;10.122;2023-07-29T13:11:06;28.70;1.00
11944;DHT22;6031;50.220;10.122;2023-07-29T13:13:32;27.80;1.00
11944;DHT22;6031;50.220;10.122;2023-07-29T13:15:57;27.20;1.00
11944;DHT22;6031;50.220;10.122;2023-07-29T13:18:23;26.90;1.00
11944;DHT22;6031;50.220;10.122;2023-07-29T13:20:48;27.30;1.00
11944;DHT22;6031;50.220;10.122;2023-07-29T13:23:15;28.30;1.00
11944;DHT22;6031;50.220;10.122;2023-07-29T13:25:41;28.80;1.00
11944;DHT22;6031;50.220;10.122;2023-07-29T13:28:06;29.30;1.00
11944;DHT22;6031;50.220;10.122;2023-07-29T13:30:33;29.00;1.00
11944;DHT22;6031;50.220;10.122;2023-07-29T13:32:59;28.90;1.00
11944;DHT22;6031;50.220;10.122;2023-07-29T13:35:24;28.20;1.00
11944;DHT22;6031;50.220;10.122;2023-07-29T13:37:50;27.60;1.00
11944;DHT22;6031;50.220;10.122;2023-07-29T13:40:16;27.20;1.00
11944;DHT22;6031;50.220;10.122;2023-07-29T13:42:41;26.90;1.00
11944;DHT22;6031;50.220;10.122;2023-07-29T13:45:07;26.60;1.00
11944;DHT22;6031;50.220;10.122;2023-07-29T13:47:33;26.20;67.90
11944;DHT22;6031;50.220;10.122;2023-07-29T13:49:59;25.60;1.00
11944;DHT22;6031;50.220;10.122;2023-07-29T13:52:25;24.90;1.00
11944;DHT22;6031;50.220;10.122;2023-07-29T13:54:51;24.70;99.90
11944;DHT22;6031;50.220;10.122;2023-07-29T13:57:16;24.40;1.00
11944;DHT22;6031;50.220;10.122;2023-07-29T13:59:42;24.10;1.00
11944;DHT22;6031;50.220;10.122;2023-07-29T14:02:07;24.00;99.90
11944;DHT22;6031;50.220;10.122;2023-07-29T14:04:33;23.90;1.00
11944;DHT22;6031;50.220;10.122;2023-07-29T14:06:59;23.70;1.00
11944;DHT22;6031;50.220;10.122;2023-07-29T14:09:26;23.80;1.00
11944;DHT22;6031;50.220;10.122;2023-07-29T14:11:51;24.30;27.70
11944;DHT22;6031;50.220;10.122;2023-07-29T14:14:17;25.40;1.00
11944;DHT22;6031;50.220;10.122;2023-07-29T14:16:42;26.00;1.00
11944;DHT22;6031;50.220;10.122;2023-07-29T14:19:08;27.10;1.00
11944;DHT22;6031;50.220;10.122;2023-07-29T14:21:33;28.00;93.60
11944;DHT22;6031;50.220;10.122;2023-07-29T14:23:59;28.20;1.00
11944;DHT22;6031;50.220;10.122;2023-07-29T14:26:25;28.90;1.00
11944;DHT22;6031;50.220;10.122;2023-07-29T14:28:50;29.10;1.00
11944;DHT22;6031;50.220;10.122;2023-07-29T14:31:16;29.50;1.00
11944;DHT22;6031;50.220;10.122;2023-07-29T14:33:43;29.90;1.00
11944;DHT22;6031;50.220;10.122;2023-07-29T14:36:08;29.70;1.00
11944;DHT22;6031;50.220;10.122;2023-07-29T14:38:35;29.40;1.00
11944;DHT22;6031;50.220;10.122;2023-07-29T14:41:00;29.80;1.00
11944;DHT22;6031;50.220;10.122;2023-07-29T14:43:26;28.90;1.00
11944;DHT22;6031;50.220;10.122;2023-07-29T14:45:51;28.40;1.00
11944;DHT22;6031;50.220;10.122;2023-07-29T14:48:17;28.30;1.00
11944;DHT22;6031;50.220;10.122;2023-07-29T14:50:43;28.70;1.00
11944;DHT22;6031;50.220;10.122;2023-07-29T14:53:09;29.10;1.00
11944;DHT22;6031;50.220;10.122;2023-07-29T14:55:36;29.40;1.00
11944;DHT22;6031;50.220;10.122;2023-07-29T14:58:02;28.70;1.00
11944;DHT22;6031;50.220;10.122;2023-07-29T15:00:27;28.30;1.00
11944;DHT22;6031;50.220;10.122;2023-07-29T15:02:53;27.60;1.00
11944;DHT22;6031;50.220;10.122;2023-07-29T15:05:18;26.80;1.00
11944;DHT22;6031;50.220;10.122;2023-07-29T15:07:44;26.20;1.00
11944;DHT22;6031;50.220;10.122;2023-07-29T15:10:09;26.30;1.00
11944;DHT22;6031;50.220;10.122;2023-07-29T15:12:35;26.30;3.20
11944;DHT22;6031;50.220;10.122;2023-07-29T15:15:01;26.70;1.00
11944;DHT22;6031;50.220;10.122;2023-07-29T15:17:26;26.70;1.00
11944;DHT22;6031;50.220;10.122;2023-07-29T15:19:52;27.00;1.00
11944;DHT22;6031;50.220;10.122;2023-07-29T15:22:18;27.20;1.00
11944;DHT22;6031;50.220;10.122;2023-07-29T15:24:43;26.80;1.00
11944;DHT22;6031;50.220;10.122;2023-07-29T15:27:10;26.40;1.00
11944;DHT22;6031;50.220;10.122;2023-07-29T15:29:35;26.10;15.90
11944;DHT22;6031;50.220;10.122;2023-07-29T15:32:01;25.70;96.40
11944;DHT22;6031;50.220;10.122;2023-07-29T15:34:26;25.30;99.90
11944;DHT22;6031;50.220;10.122;2023-07-29T15:36:57;25.20;99.90
11944;DHT22;6031;50.220;10.122;2023-07-29T15:39:22;25.00;99.90
11944;DHT22;6031;50.220;10.122;2023-07-29T15:41:48;25.00;99.90
11944;DHT22;6031;50.220;10.122;2023-07-29T15:44:13;25.10;99.90
11944;DHT22;6031;50.220;10.122;2023-07-29T15:46:39;25.20;99.90
11944;DHT22;6031;50.220;10.122;2023-07-29T15:49:04;25.10;99.90
11944;DHT22;6031;50.220;10.122;2023-07-29T15:51:31;25.20;99.90
11944;DHT22;6031;50.220;10.122;2023-07-29T15:53:56;25.20;99.90